createdAt,value
2023-02-14T00:00:34.609Z,98472.66
2023-02-14T00:03:31.487Z,98472.56
2023-02-14T00:06:31.888Z,98474.56
2023-02-14T00:09:28.751Z,98473.81
2023-02-14T00:12:25.707Z,98473.75
2023-02-14T00:15:22.659Z,98471.84
2023-02-14T00:18:19.858Z,98465.31
2023-02-14T00:21:16.771Z,98463.22
2023-02-14T00:24:23.894Z,98470.38
2023-02-14T00:27:20.869Z,98454.81
2023-02-14T00:30:17.827Z,98459.59
2023-02-14T00:33:14.769Z,98457.06
2023-02-14T00:36:12.489Z,98448.19
2023-02-14T00:39:13.710Z,98453.06
2023-02-14T00:42:10.553Z,98445.28
2023-02-14T00:45:07.845Z,98452.53
2023-02-14T00:48:05.000Z,98458.25
2023-02-14T00:51:01.831Z,98462.59
2023-02-14T00:53:58.677Z,98458.31
2023-02-14T00:56:55.548Z,98461.50
2023-02-14T00:59:52.551Z,98452.72
2023-02-14T01:02:49.452Z,98452.16
2023-02-14T01:05:48.486Z,98451.78
2023-02-14T01:08:45.493Z,98448.56
2023-02-14T01:11:42.376Z,98454.97
2023-02-14T01:14:39.313Z,98455.06
2023-02-14T01:17:36.432Z,98460.50
2023-02-14T01:20:33.936Z,98457.13
2023-02-14T01:23:30.952Z,98449.25
2023-02-14T01:26:29.119Z,98446.88
2023-02-14T01:29:25.976Z,98450.16
2023-02-14T01:32:22.909Z,98447.50
2023-02-14T01:35:19.820Z,98447.81
2023-02-14T01:38:16.713Z,98444.25
2023-02-14T01:41:14.390Z,98444.44
2023-02-14T01:44:14.328Z,98445.81
2023-02-14T01:47:11.980Z,98444.34
2023-02-14T01:50:31.689Z,98439.91
2023-02-14T01:53:29.593Z,98440.56
2023-02-14T01:56:35.477Z,98435.56
2023-02-14T01:59:38.478Z,98435.94
2023-02-14T02:02:35.434Z,98436.31
2023-02-14T02:05:32.475Z,98439.25
2023-02-14T02:08:29.501Z,98431.06
2023-02-14T02:11:27.195Z,98439.94
2023-02-14T02:14:24.389Z,98447.25
2023-02-14T02:18:07.013Z,98429.97
2023-02-14T02:21:24.035Z,98427.78
2023-02-14T02:25:16.247Z,98427.75
2023-02-14T02:28:49.482Z,98421.69
2023-02-14T02:32:43.478Z,98428.31
2023-02-14T02:35:40.162Z,98434.75
2023-02-14T02:39:28.958Z,98435.72
2023-02-14T02:42:44.873Z,98437.38
2023-02-14T02:46:13.673Z,98436.03
2023-02-14T02:50:00.476Z,98430.53
2023-02-14T02:53:30.339Z,98426.59
2023-02-14T02:56:46.438Z,98432.41
2023-02-14T02:59:45.683Z,98433.75
2023-02-14T03:03:07.176Z,98430.13
2023-02-14T03:06:04.552Z,98436.84
2023-02-14T03:09:33.666Z,98431.69
2023-02-14T03:12:38.877Z,98433.38
2023-02-14T03:16:08.015Z,98426.88
2023-02-14T03:19:36.869Z,98420.34
2023-02-14T03:22:59.308Z,98422.06
2023-02-14T03:26:27.334Z,98426.75
2023-02-14T03:29:49.257Z,98421.44
2023-02-14T03:32:55.233Z,98421.34
2023-02-14T03:36:05.017Z,98433.78
2023-02-14T03:39:30.309Z,98435.13
2023-02-14T03:42:40.354Z,98425.19
2023-02-14T03:46:05.781Z,98426.06
2023-02-14T03:49:10.307Z,98423.00
2023-02-14T03:52:09.762Z,98423.53
2023-02-14T03:55:09.118Z,98426.06
2023-02-14T03:58:26.192Z,98425.97
2023-02-14T04:01:30.149Z,98428.34
2023-02-14T04:04:33.172Z,98435.31
2023-02-14T04:07:30.280Z,98433.09
2023-02-14T04:10:27.418Z,98431.84
2023-02-14T04:13:24.323Z,98433.56
2023-02-14T04:16:21.212Z,98426.69
2023-02-14T04:19:23.851Z,98426.22
2023-02-14T04:22:21.186Z,98415.47
2023-02-14T04:25:19.963Z,98413.25
2023-02-14T04:28:16.980Z,98419.97
2023-02-14T04:31:14.035Z,98415.56
2023-02-14T04:34:10.942Z,98419.72
2023-02-14T04:37:08.612Z,98410.69
2023-02-14T04:40:06.655Z,98421.00
2023-02-14T04:43:04.677Z,98422.44
2023-02-14T04:46:01.640Z,98418.81
2023-02-14T04:48:59.322Z,98411.09
2023-02-14T04:51:56.659Z,98410.56
2023-02-14T04:54:53.762Z,98414.22
2023-02-14T04:57:50.616Z,98412.66
2023-02-14T05:00:48.077Z,98406.31
2023-02-14T05:03:44.955Z,98407.59
2023-02-14T05:06:41.812Z,98412.66
2023-02-14T05:09:38.661Z,98413.28
2023-02-14T05:12:35.536Z,98409.78
2023-02-14T05:15:32.396Z,98409.94
2023-02-14T05:18:29.367Z,98411.31
2023-02-14T05:21:33.000Z,98403.22
2023-02-14T05:24:33.787Z,98405.94
2023-02-14T05:27:30.621Z,98402.34
2023-02-14T05:30:29.035Z,98414.47
2023-02-14T05:33:26.324Z,98408.03
2023-02-14T05:36:23.320Z,98406.41
2023-02-14T05:39:20.118Z,98404.88
2023-02-14T05:42:16.981Z,98403.78
2023-02-14T05:45:13.903Z,98400.34
2023-02-14T05:48:10.722Z,98408.19
2023-02-14T05:51:10.433Z,98404.03
2023-02-14T05:54:08.870Z,98406.13
2023-02-14T05:57:08.029Z,98408.94
2023-02-14T06:00:07.349Z,98402.41
2023-02-14T06:03:04.321Z,98413.47
2023-02-14T06:06:01.828Z,98418.91
2023-02-14T06:08:58.703Z,98410.69
2023-02-14T06:11:55.587Z,98414.28
2023-02-14T06:14:52.451Z,98423.16
2023-02-14T06:17:55.154Z,98407.38
2023-02-14T06:20:54.725Z,98420.09
2023-02-14T06:23:51.913Z,98421.34
2023-02-14T06:26:48.803Z,98416.38
2023-02-14T06:29:45.771Z,98422.63
2023-02-14T06:32:42.721Z,98427.41
2023-02-14T06:35:39.731Z,98421.63
2023-02-14T06:38:36.589Z,98426.69
2023-02-14T06:41:33.434Z,98443.28
2023-02-14T06:44:30.218Z,98427.59
2023-02-14T06:47:27.072Z,98426.44
2023-02-14T06:50:23.876Z,98428.41
2023-02-14T06:53:21.311Z,98431.50
2023-02-14T06:56:18.132Z,98428.94
2023-02-14T06:59:14.948Z,98426.31
2023-02-14T07:02:12.240Z,98430.59
2023-02-14T07:05:09.223Z,98421.16
2023-02-14T07:08:07.275Z,98411.19
2023-02-14T07:11:04.164Z,98418.72
2023-02-14T07:14:00.990Z,98408.09
2023-02-14T07:16:57.792Z,98401.41
2023-02-14T07:19:54.619Z,98419.81
2023-02-14T07:22:51.840Z,98415.88
2023-02-14T07:25:48.674Z,98410.16
2023-02-14T07:28:46.693Z,98410.53
2023-02-14T07:31:43.633Z,98412.69
2023-02-14T07:34:40.526Z,98411.53
2023-02-14T07:37:37.342Z,98410.63
2023-02-14T07:40:34.177Z,98407.47
2023-02-14T07:43:31.020Z,98395.59
2023-02-14T07:46:27.921Z,98403.88
2023-02-14T07:49:24.741Z,98393.13
2023-02-14T07:52:21.561Z,98399.81
2023-02-14T07:55:19.315Z,98392.63
2023-02-14T07:58:16.284Z,98384.94
2023-02-14T08:01:13.106Z,98388.38
2023-02-14T08:04:10.576Z,98379.53
2023-02-14T08:07:07.827Z,98374.13
2023-02-14T08:10:05.424Z,98375.78
2023-02-14T08:13:03.539Z,98374.38
2023-02-14T08:16:06.344Z,98378.03
2023-02-14T08:19:04.317Z,98372.41
2023-02-14T08:22:01.445Z,98376.47
2023-02-14T08:24:58.403Z,98377.22
2023-02-14T08:27:55.532Z,98380.59
2023-02-14T08:30:52.756Z,98384.34
2023-02-14T08:33:49.579Z,98375.41
2023-02-14T08:36:47.498Z,98378.22
2023-02-14T08:39:44.411Z,98372.13
2023-02-14T08:42:41.762Z,98374.56
2023-02-14T08:45:39.461Z,98370.13
2023-02-14T08:48:39.473Z,98367.50
2023-02-14T08:51:36.603Z,98365.34
2023-02-14T08:54:33.559Z,98377.66
2023-02-14T08:57:30.367Z,98368.41
2023-02-14T09:00:27.413Z,98371.91
2023-02-14T09:03:24.593Z,98366.38
2023-02-14T09:06:21.459Z,98368.44
2023-02-14T09:09:19.445Z,98359.78
2023-02-14T09:12:16.299Z,98360.25
2023-02-14T09:15:13.636Z,98368.59
2023-02-14T09:18:10.508Z,98355.91
2023-02-14T09:21:13.486Z,98355.34
2023-02-14T09:24:10.357Z,98354.56
2023-02-14T09:27:08.292Z,98350.63
2023-02-14T09:30:08.113Z,98336.19
2023-02-14T09:33:05.431Z,98330.59
2023-02-14T09:36:21.014Z,98322.88
2023-02-14T09:39:18.146Z,98317.47
2023-02-14T09:42:41.687Z,98314.44
2023-02-14T09:45:39.991Z,98305.03
2023-02-14T09:48:41.803Z,98304.28
2023-02-14T09:51:43.424Z,98302.91
2023-02-14T09:54:42.526Z,98282.69
2023-02-14T09:58:02.816Z,98281.59
2023-02-14T10:01:18.267Z,98292.66
2023-02-14T10:04:33.755Z,98283.84
2023-02-14T10:07:56.841Z,98284.44
2023-02-14T10:11:20.981Z,98274.31
2023-02-14T10:14:26.990Z,98283.72
2023-02-14T10:17:42.303Z,98278.75
2023-02-14T10:20:57.788Z,98281.13
2023-02-14T10:24:16.121Z,98278.72
2023-02-14T10:27:26.681Z,98269.75
2023-02-14T10:30:24.420Z,98277.41
2023-02-14T10:33:24.494Z,98272.69
2023-02-14T10:36:49.138Z,98274.16
2023-02-14T10:40:13.132Z,98262.91
2023-02-14T10:43:36.717Z,98263.72
2023-02-14T10:46:48.189Z,98268.72
2023-02-14T10:50:27.526Z,98264.72
2023-02-14T10:53:59.707Z,98256.50
2023-02-14T10:57:14.449Z,98258.09
2023-02-14T11:00:34.224Z,98244.53
2023-02-14T11:03:33.042Z,98250.16
2023-02-14T11:06:31.093Z,98253.03
2023-02-14T11:09:27.936Z,98250.16
2023-02-14T11:12:40.532Z,98252.28
2023-02-14T11:15:40.617Z,98257.19
2023-02-14T11:18:40.933Z,98248.84
2023-02-14T11:21:44.509Z,98241.63
2023-02-14T11:24:42.382Z,98236.91
2023-02-14T11:27:42.938Z,98234.47
2023-02-14T11:30:43.571Z,98231.72
2023-02-14T11:33:42.839Z,98237.63
2023-02-14T11:36:42.243Z,98232.66
2023-02-14T11:39:40.187Z,98239.56
2023-02-14T11:42:45.319Z,98247.88
2023-02-14T11:45:45.896Z,98244.34
2023-02-14T11:49:07.296Z,98232.84
2023-02-14T11:52:17.372Z,98229.09
2023-02-14T11:55:33.787Z,98215.13
2023-02-14T11:58:45.114Z,98212.38
2023-02-14T12:01:46.206Z,98223.06
2023-02-14T12:04:46.950Z,98208.28
2023-02-14T12:07:45.876Z,98205.81
2023-02-14T12:10:42.848Z,98202.16
2023-02-14T12:13:39.702Z,98199.84
2023-02-14T12:16:50.571Z,98192.69
2023-02-14T12:20:15.571Z,98197.16
2023-02-14T12:23:33.482Z,98197.72
2023-02-14T12:26:59.964Z,98182.97
2023-02-14T12:30:20.286Z,98183.81
2023-02-14T12:33:21.802Z,98178.53
2023-02-14T12:37:16.725Z,98178.56
2023-02-14T12:40:55.583Z,98178.03
2023-02-14T12:43:58.469Z,98181.88
2023-02-14T12:47:13.283Z,98180.06
2023-02-14T12:50:21.661Z,98169.03
2023-02-14T12:53:49.213Z,98163.22
2023-02-14T12:57:21.717Z,98163.06
2023-02-14T13:00:51.235Z,98159.97
2023-02-14T13:04:26.889Z,98162.22
2023-02-14T13:07:48.975Z,98156.13
2023-02-14T13:10:57.347Z,98157.16
2023-02-14T13:14:26.365Z,98159.22
2023-02-14T13:17:36.690Z,98152.00
2023-02-14T13:21:00.029Z,98151.88
2023-02-14T13:24:22.762Z,98159.63
2023-02-14T13:27:24.514Z,98141.91
2023-02-14T13:30:37.656Z,98135.88
2023-02-14T13:33:54.880Z,98143.06
2023-02-14T13:36:52.777Z,98144.13
2023-02-14T13:39:56.136Z,98148.47
2023-02-14T13:43:00.488Z,98129.09
2023-02-14T13:45:57.379Z,98133.34
2023-02-14T13:49:13.848Z,98137.34
2023-02-14T13:52:10.712Z,98130.97
2023-02-14T13:55:21.316Z,98125.09
2023-02-14T13:58:21.758Z,98112.44
2023-02-14T14:01:48.747Z,98114.56
2023-02-14T14:04:45.540Z,98115.47
2023-02-14T14:07:42.354Z,98108.59
2023-02-14T14:10:59.560Z,98109.59
2023-02-14T14:14:19.253Z,98105.06
2023-02-14T14:17:21.817Z,98101.22
2023-02-14T14:20:21.320Z,98100.78
2023-02-14T14:23:37.205Z,98095.81
2023-02-14T14:26:45.555Z,98097.88
2023-02-14T14:29:55.718Z,98086.53
2023-02-14T14:32:52.573Z,98097.28
2023-02-14T14:36:07.755Z,98098.78
2023-02-14T14:39:05.049Z,98082.22
2023-02-14T14:42:14.769Z,98083.41
2023-02-14T14:45:27.616Z,98080.41
2023-02-14T14:48:39.801Z,98092.09
2023-02-14T14:51:37.424Z,98087.50
2023-02-14T14:54:35.623Z,98089.19
2023-02-14T14:57:35.155Z,98086.69
2023-02-14T15:00:42.460Z,98085.75
2023-02-14T15:03:39.899Z,98079.25
2023-02-14T15:06:36.935Z,98088.75
2023-02-14T15:09:33.758Z,98095.47
2023-02-14T15:12:49.770Z,98096.19
2023-02-14T15:15:51.047Z,98095.06
2023-02-14T15:18:49.369Z,98099.75
2023-02-14T15:21:46.900Z,98092.84
2023-02-14T15:24:43.925Z,98098.88
2023-02-14T15:27:41.614Z,98094.53
2023-02-14T15:30:39.854Z,98098.34
2023-02-14T15:33:37.917Z,98092.53
2023-02-14T15:36:36.212Z,98091.25
2023-02-14T15:39:43.068Z,98091.00
2023-02-14T15:42:45.404Z,98097.03
2023-02-14T15:45:44.905Z,98106.66
2023-02-14T15:48:42.311Z,98100.88
2023-02-14T15:51:40.763Z,98103.38
2023-02-14T15:54:44.742Z,98106.16
2023-02-14T15:57:48.496Z,98118.38
2023-02-14T16:00:45.527Z,98101.16
2023-02-14T16:03:52.420Z,98114.25
2023-02-14T16:07:02.760Z,98115.22
2023-02-14T16:10:23.039Z,98117.66
2023-02-14T16:13:29.260Z,98118.69
2023-02-14T16:16:26.109Z,98121.84
2023-02-14T16:19:52.130Z,98115.59
2023-02-14T16:22:50.482Z,98120.97
2023-02-14T16:25:48.151Z,98124.13
2023-02-14T16:28:45.030Z,98118.69
2023-02-14T16:32:16.181Z,98116.22
2023-02-14T16:35:20.601Z,98123.56
2023-02-14T16:38:19.976Z,98117.97
2023-02-14T16:41:28.571Z,98124.94
2023-02-14T16:44:25.434Z,98133.72
2023-02-14T16:47:22.494Z,98124.56
2023-02-14T16:50:20.304Z,98127.63
2023-02-14T16:53:27.550Z,98125.91
2023-02-14T16:56:35.835Z,98127.88
2023-02-14T16:59:32.787Z,98127.88
2023-02-14T17:02:29.742Z,98133.91
2023-02-14T17:05:28.412Z,98125.00
2023-02-14T17:08:26.074Z,98122.63
2023-02-14T17:11:25.259Z,98122.38
2023-02-14T17:14:29.680Z,98115.34
2023-02-14T17:17:26.976Z,98125.84
2023-02-14T17:20:24.329Z,98126.72
2023-02-14T17:23:21.496Z,98115.56
2023-02-14T17:26:19.796Z,98114.75
2023-02-14T17:29:16.808Z,98118.22
2023-02-14T17:32:14.250Z,98110.25
2023-02-14T17:35:11.948Z,98108.06
2023-02-14T17:38:09.208Z,98104.75
2023-02-14T17:41:16.435Z,98110.19
2023-02-14T17:44:13.291Z,98121.28
2023-02-14T17:47:10.291Z,98110.50
2023-02-14T17:50:08.040Z,98112.91
2023-02-14T17:53:05.245Z,98115.19
2023-02-14T17:56:08.637Z,98120.72
2023-02-14T17:59:05.474Z,98116.88
2023-02-14T18:02:02.538Z,98117.41
2023-02-14T18:05:00.325Z,98120.69
2023-02-14T18:07:57.925Z,98116.59
2023-02-14T18:10:55.761Z,98117.59
2023-02-14T18:13:58.010Z,98124.28
2023-02-14T18:16:54.893Z,98115.59
2023-02-14T18:19:51.757Z,98127.22
2023-02-14T18:22:48.540Z,98117.69
2023-02-14T18:25:54.330Z,98124.56
2023-02-14T18:28:52.907Z,98124.41
2023-02-14T18:31:50.048Z,98130.03
2023-02-14T18:34:46.931Z,98121.16
2023-02-14T18:37:43.771Z,98116.69
2023-02-14T18:40:41.533Z,98119.72
2023-02-14T18:43:38.782Z,98118.31
2023-02-14T18:46:36.418Z,98120.16
2023-02-14T18:49:33.334Z,98108.19
2023-02-14T18:52:30.593Z,98115.50
2023-02-14T18:55:28.789Z,98108.19
2023-02-14T18:58:25.729Z,98103.91
2023-02-14T19:01:30.503Z,98095.19
2023-02-14T19:04:28.978Z,98105.72
2023-02-14T19:07:25.862Z,98105.16
2023-02-14T19:10:22.707Z,98099.28
2023-02-14T19:13:20.880Z,98096.41
2023-02-14T19:16:27.775Z,98091.34
2023-02-14T19:19:25.141Z,98098.03
2023-02-14T19:22:22.545Z,98091.97
2023-02-14T19:25:19.427Z,98088.31
2023-02-14T19:28:16.240Z,98087.91
2023-02-14T19:31:13.324Z,98086.47
2023-02-14T19:34:21.566Z,98083.84
2023-02-14T19:37:19.244Z,98094.97
2023-02-14T19:40:16.076Z,98085.06
2023-02-14T19:43:12.921Z,98079.78
2023-02-14T19:46:09.758Z,98090.75
2023-02-14T19:49:06.981Z,98090.72
2023-02-14T19:52:06.279Z,98098.63
2023-02-14T19:55:07.436Z,98094.59
2023-02-14T19:58:04.419Z,98088.69
2023-02-14T20:01:01.724Z,98089.91
2023-02-14T20:03:58.777Z,98092.38
2023-02-14T20:06:56.436Z,98093.38
2023-02-14T20:09:54.739Z,98085.28
2023-02-14T20:12:51.918Z,98089.94
2023-02-14T20:15:48.821Z,98082.84
2023-02-14T20:18:45.675Z,98081.03
2023-02-14T20:21:46.044Z,98077.78
2023-02-14T20:24:42.840Z,98074.31
2023-02-14T20:27:39.676Z,98069.66
2023-02-14T20:30:41.556Z,98074.94
2023-02-14T20:33:39.629Z,98083.22
2023-02-14T20:36:36.513Z,98074.63
2023-02-14T20:39:35.820Z,98066.59
2023-02-14T20:42:32.621Z,98071.25
2023-02-14T20:45:29.715Z,98059.13
2023-02-14T20:48:27.711Z,98067.63
2023-02-14T20:51:25.005Z,98075.75
2023-02-14T20:54:25.838Z,98066.41
2023-02-14T20:57:23.473Z,98060.94
2023-02-14T21:00:20.500Z,98063.56
2023-02-14T21:03:17.346Z,98070.66
2023-02-14T21:06:15.327Z,98064.38
2023-02-14T21:09:12.146Z,98059.72
2023-02-14T21:12:08.955Z,98073.72
2023-02-14T21:15:10.258Z,98063.56
2023-02-14T21:18:07.576Z,98064.97
2023-02-14T21:21:07.284Z,98066.00
2023-02-14T21:24:11.101Z,98066.81
2023-02-14T21:27:07.991Z,98063.34
2023-02-14T21:30:06.767Z,98066.00
2023-02-14T21:33:03.987Z,98057.47
2023-02-14T21:36:11.991Z,98061.13
2023-02-14T21:39:08.851Z,98054.41
2023-02-14T21:42:07.680Z,98059.06
2023-02-14T21:45:23.621Z,98056.22
2023-02-14T21:48:38.740Z,98049.38
2023-02-14T21:51:35.556Z,98057.03
2023-02-14T21:54:32.372Z,98055.59
2023-02-14T21:57:31.423Z,98054.22
2023-02-14T22:00:28.228Z,98053.59
2023-02-14T22:03:25.094Z,98057.03
2023-02-14T22:06:22.409Z,98050.50
2023-02-14T22:09:19.270Z,98056.63
2023-02-14T22:12:16.073Z,98050.53
2023-02-14T22:15:12.867Z,98042.81
2023-02-14T22:18:09.668Z,98043.75
2023-02-14T22:21:10.274Z,98040.94
2023-02-14T22:24:07.088Z,98037.50
2023-02-14T22:27:03.942Z,98036.06
2023-02-14T22:30:00.800Z,98027.59
2023-02-14T22:32:58.352Z,98018.22
2023-02-14T22:36:00.996Z,98022.28
2023-02-14T22:38:58.064Z,98022.91
2023-02-14T22:41:55.443Z,98021.41
2023-02-14T22:44:52.265Z,98011.31
2023-02-14T22:47:49.057Z,98014.94
2023-02-14T22:50:45.972Z,98005.50
2023-02-14T22:53:43.098Z,97999.59
2023-02-14T22:56:43.387Z,98001.84
2023-02-14T22:59:40.344Z,98000.13
2023-02-14T23:02:37.943Z,97994.06
2023-02-14T23:05:34.768Z,97986.53
2023-02-14T23:08:31.587Z,97982.47
2023-02-14T23:11:31.799Z,97979.19
2023-02-14T23:14:47.012Z,97986.28
2023-02-14T23:18:02.173Z,97974.13
2023-02-14T23:21:17.629Z,97971.59
2023-02-14T23:24:14.421Z,97977.13
2023-02-14T23:27:11.320Z,97970.31
2023-02-14T23:30:13.419Z,97965.22
2023-02-14T23:33:10.281Z,97968.13
2023-02-14T23:36:07.361Z,97966.84
2023-02-14T23:39:04.261Z,97965.50
2023-02-14T23:42:03.679Z,97963.03
2023-02-14T23:45:20.530Z,97968.38
2023-02-14T23:48:17.450Z,97964.53
2023-02-14T23:51:14.568Z,97956.06
2023-02-14T23:54:12.859Z,97960.69
2023-02-14T23:57:09.885Z,97950.19
